Time;durP1;ratioP1;P1;durP2;ratioP2;P2;SDS_P1;SDS_P2;PMS_P1;PMS_P2;Temp;Humidity;BMP_temperature;BMP_pressure;BME280_temperature;BME280_humidity;BME280_pressure;Samples;Min_cycle;Max_cycle;Signal;HPM_P1;HPM_P2
2023/02/03 02:12:56;;;;;;;12.70;5.50;;;;;;;-0.93;100.00;96462.98;103742;1299;1003114;-69
2023/02/03 02:15:49;;;;;;;12.00;5.70;;;;;;;-0.75;100.00;95523.39;105756;1288;211902;-69
2023/02/03 02:18:43;;;;;;;9.60;4.40;;;;;;;-0.68;100.00;95552.61;106064;1288;25387;-70
2023/02/03 02:21:22;;;;;;;13.10;5.70;;;;;;;-0.63;100.00;95634.30;106122;1288;22663;-70
2023/02/03 02:24:16;;;;;;;13.70;5.50;;;;;;;-0.59;100.00;95718.95;106151;1288;24275;-70
2023/02/03 02:27:07;;;;;;;17.30;6.40;;;;;;;-0.57;100.00;95767.69;106138;1288;26514;-70
2023/02/03 02:29:45;;;;;;;14.80;5.90;;;;;;;-0.56;100.00;95825.70;106100;1288;22538;-70
2023/02/03 02:32:27;;;;;;;15.80;6.30;;;;;;;-0.54;100.00;95871.24;106133;1288;22639;-70
2023/02/03 02:35:21;;;;;;;19.00;7.20;;;;;;;-0.52;100.00;95899.42;106050;1285;25391;-69
2023/02/03 02:38:01;;;;;;;18.60;6.90;;;;;;;-0.51;100.00;95924.89;106000;1288;26611;-69
2023/02/03 02:40:36;;;;;;;14.80;6.20;;;;;;;-0.51;100.00;95963.19;106109;1288;25297;-69
2023/02/03 02:43:20;;;;;;;16.90;6.70;;;;;;;-0.52;100.00;95994.98;106107;1288;25268;-70
2023/02/03 02:45:49;;;;;;;16.30;6.70;;;;;;;-0.54;100.00;96015.92;106083;1288;23009;-70
2023/02/03 02:48:31;;;;;;;19.30;7.80;;;;;;;-0.59;100.00;96043.27;106793;1277;22536;-69
2023/02/03 02:51:00;;;;;;;17.20;7.70;;;;;;;-0.65;100.00;96071.27;106753;1276;22640;-69
2023/02/03 02:53:32;;;;;;;16.30;7.20;;;;;;;-0.71;100.00;96101.94;106734;1276;25308;-70
2023/02/03 02:56:02;;;;;;;;;;;;;;;-0.75;100.00;96124.48;106815;1277;25930;-70
2023/02/03 02:58:33;;;;;;;15.90;6.20;;;;;;;-0.80;100.00;96147.80;106756;1277;25643;-69
2023/02/03 03:01:02;;;;;;;14.40;6.50;;;;;;;-0.84;100.00;96164.77;106765;1277;24259;-70
2023/02/03 03:03:32;;;;;;;11.50;5.80;;;;;;;-0.86;100.00;96182.20;106694;1277;25328;-70
2023/02/03 03:06:02;;;;;;;13.20;6.30;;;;;;;-0.88;100.00;96199.33;106783;1277;22516;-69
2023/02/03 03:09:08;;;;;;;11.50;5.60;;;;;;;-0.89;100.00;96210.26;106816;1277;25951;-69
2023/02/03 03:11:44;;;;;;;11.90;5.20;;;;;;;-0.92;100.00;96213.13;106831;1277;25975;-70
2023/02/03 03:14:13;;;;;;;14.00;6.50;;;;;;;-0.94;100.00;96237.02;106898;1276;24283;-68
2023/02/03 03:16:44;;;;;;;16.60;7.90;;;;;;;-0.97;100.00;96248.96;106707;1277;22646;-69
2023/02/03 03:19:20;;;;;;;16.20;7.40;;;;;;;-0.99;100.00;96265.75;106824;1277;24227;-69
2023/02/03 03:21:52;;;;;;;20.30;9.10;;;;;;;-1.01;100.00;96272.06;106785;1277;25458;-69
2023/02/03 03:24:24;;;;;;;16.70;8.10;;;;;;;-0.99;100.00;96281.90;106830;1277;24169;-69
2023/02/03 03:26:58;;;;;;;15.40;6.80;;;;;;;-0.98;100.00;96290.36;106821;1277;22530;-68
2023/02/03 03:29:34;;;;;;;13.70;6.80;;;;;;;-0.98;100.00;96298.60;106768;1277;22535;-69
2023/02/03 03:32:02;;;;;;;14.70;6.90;;;;;;;-0.99;100.00;96306.67;106772;1277;25948;-71
2023/02/03 03:34:32;;;;;;;15.30;8.40;;;;;;;-1.01;100.00;96319.30;106006;1277;1002706;-70
2023/02/03 03:37:22;;;;;;;19.00;9.10;;;;;;;-1.03;100.00;96327.17;106813;1277;26528;-69
2023/02/03 03:39:54;;;;;;;13.00;6.40;;;;;;;-1.03;100.00;96332.53;106866;1277;25418;-68
2023/02/03 03:42:29;;;;;;;15.20;6.50;;;;;;;-1.04;100.00;96347.29;106807;1277;25375;-70
2023/02/03 03:45:29;;;;;;;14.10;6.60;;;;;;;-1.05;100.00;96358.02;106107;1277;1002890;-70
2023/02/03 03:47:57;;;;;;;10.80;5.60;;;;;;;-1.07;100.00;96363.54;106067;1277;1003410;-69
2023/02/03 03:50:38;;;;;;;15.20;6.20;;;;;;;-1.08;100.00;96382.45;106797;1277;23870;-69
2023/02/03 03:53:07;;;;;;;12.10;6.20;;;;;;;-1.13;100.00;96390.59;106750;1277;25357;-69
2023/02/03 03:55:35;;;;;;;13.70;6.00;;;;;;;-1.15;100.00;96409.66;106658;1277;22546;-68
2023/02/03 03:58:07;;;;;;;17.00;8.10;;;;;;;-1.15;100.00;96413.70;106119;1277;1003024;-69
2023/02/03 04:00:36;;;;;;;16.00;7.10;;;;;;;-1.18;100.00;96419.42;106819;1277;22953;-69
2023/02/03 04:03:16;;;;;;;13.20;6.10;;;;;;;-1.19;100.00;96425.29;106818;1277;22530;-69
2023/02/03 04:05:45;;;;;;;12.80;5.70;;;;;;;-1.20;100.00;96430.20;106827;1277;24362;-70
2023/02/03 04:08:13;;;;;;;13.70;5.80;;;;;;;-1.19;100.00;96442.41;106816;1277;25435;-71
2023/02/03 04:10:42;;;;;;;12.70;5.50;;;;;;;-1.19;100.00;96441.95;106669;1277;24355;-70
2023/02/03 04:13:11;;;;;;;10.00;5.60;;;;;;;-1.20;100.00;96447.95;106701;1277;25423;-68
2023/02/03 04:15:40;;;;;;;11.00;5.20;;;;;;;-1.20;100.00;96453.45;106673;1277;25253;-72
2023/02/03 04:18:11;;;;;;;12.40;5.70;;;;;;;-1.22;100.00;96460.44;105899;1277;1003369;-70
2023/02/03 04:20:39;;;;;;;11.70;5.70;;;;;;;-1.24;100.00;96466.16;106739;1277;25443;-71
2023/02/03 04:23:08;;;;;;;10.10;5.20;;;;;;;-1.25;100.00;96476.75;106835;1277;25437;-70
2023/02/03 04:25:37;;;;;;;15.20;5.60;;;;;;;-1.27;100.00;96484.40;106817;1277;22527;-69
2023/02/03 04:28:06;;;;;;;15.40;6.30;;;;;;;-1.29;100.00;96485.55;106126;1277;1002888;-70
2023/02/03 04:30:34;;;;;;;10.90;5.60;;;;;;;-1.31;100.00;96490.95;106808;1277;23135;-70
2023/02/03 04:33:03;;;;;;;10.60;5.40;;;;;;;-1.31;100.00;96494.05;106097;1277;1003673;-70
2023/02/03 04:35:32;;;;;;;15.70;5.80;;;;;;;-1.31;100.00;96503.63;106778;1277;22542;-70
2023/02/03 04:38:01;;;;;;;13.10;6.30;;;;;;;-1.31;100.00;96503.77;106803;1277;25409;-69
2023/02/03 04:40:30;;;;;;;13.20;6.70;;;;;;;-1.31;100.00;96505.71;106802;1277;26514;-70
2023/02/03 04:43:06;;;;;;;14.60;6.60;;;;;;;-1.30;100.00;96510.61;106877;1277;25311;-69
2023/02/03 04:45:35;;;;;;;18.10;7.90;;;;;;;-1.30;100.00;96513.43;106822;1277;22559;-70
2023/02/03 04:48:04;;;;;;;15.50;7.10;;;;;;;-1.31;100.00;96524.14;106817;1277;25254;-71
2023/02/03 04:50:32;;;;;;;18.20;6.60;;;;;;;-1.32;100.00;96529.51;105983;1277;1003063;-70
2023/02/03 04:53:02;;;;;;;15.40;6.90;;;;;;;-1.31;100.00;96523.90;106120;1277;1003694;-70
2023/02/03 04:55:31;;;;;;;14.70;6.70;;;;;;;-1.29;100.00;96529.55;106049;1277;1015622;-70
2023/02/03 04:58:00;;;;;;;17.60;7.10;;;;;;;-1.28;100.00;96527.81;106052;1277;1003711;-68
2023/02/03 05:00:29;;;;;;;23.10;9.00;;;;;;;-1.26;100.00;96528.98;106823;1277;22527;-69
2023/02/03 05:02:58;;;;;;;19.60;7.80;;;;;;;-1.26;100.00;96537.21;106108;1277;1005071;-70
2023/02/03 05:05:26;;;;;;;28.80;10.90;;;;;;;-1.25;100.00;96541.98;106812;1277;22645;-70
2023/02/03 05:07:55;;;;;;;22.50;9.20;;;;;;;-1.25;100.00;96548.82;106811;1277;25309;-69
2023/02/03 05:10:23;;;;;;;20.20;8.50;;;;;;;-1.24;100.00;96555.77;106086;1277;1002829;-70
2023/02/03 05:12:52;;;;;;;17.20;7.60;;;;;;;-1.24;100.00;96555.96;106788;1277;22553;-69
2023/02/03 05:15:20;;;;;;;18.90;7.70;;;;;;;-1.24;100.00;96553.11;106788;1277;26691;-70
2023/02/03 05:17:52;;;;;;;20.40;8.30;;;;;;;-1.25;100.00;96562.56;106816;1277;25259;-69
2023/02/03 05:20:21;;;;;;;16.50;7.40;;;;;;;-1.25;100.00;96562.23;106859;1277;24078;-68
2023/02/03 05:22:50;;;;;;;15.00;6.70;;;;;;;-1.26;100.00;96565.52;106796;1277;26516;-70
2023/02/03 05:25:19;;;;;;;14.60;6.20;;;;;;;-1.26;100.00;96566.29;106758;1277;25436;-70
2023/02/03 05:27:47;;;;;;;15.60;6.40;;;;;;;-1.27;100.00;96570.94;106844;1277;25380;-69
2023/02/03 05:30:16;;;;;;;17.60;7.70;;;;;;;-1.28;100.00;96576.42;106095;1277;1003024;-69
2023/02/03 05:32:46;;;;;;;19.00;8.30;;;;;;;-1.30;100.00;96576.77;106099;1277;1003372;-69
2023/02/03 05:35:15;;;;;;;15.70;7.60;;;;;;;-1.30;100.00;96586.75;106800;1277;25376;-70
2023/02/03 05:37:44;;;;;;;16.90;6.40;;;;;;;-1.29;100.00;96589.09;106814;1277;22551;-69
2023/02/03 05:43:00;;;;;;;13.80;5.40;;;;;;;-1.28;100.00;96585.20;106785;1277;25254;-70
2023/02/03 05:45:29;;;;;;;11.60;5.40;;;;;;;-1.27;100.00;96594.27;106419;1277;1003027;-68
2023/02/03 05:47:58;;;;;;;10.80;5.00;;;;;;;-1.26;100.00;96596.48;106742;1277;25366;-69
2023/02/03 05:50:29;;;;;;;8.80;4.80;;;;;;;-1.25;100.00;96599.67;106097;1277;1002824;-70
2023/02/03 05:53:07;;;;;;;10.80;4.70;;;;;;;-1.22;100.00;96589.08;106800;1277;22600;-69
2023/02/03 05:55:36;;;;;;;10.50;4.80;;;;;;;-1.19;100.00;96597.20;106759;1277;25311;-69
2023/02/03 05:58:05;;;;;;;10.90;4.60;;;;;;;-1.17;100.00;96592.38;106021;1277;1003762;-70
2023/02/03 06:00:34;;;;;;;11.40;5.50;;;;;;;-1.15;100.00;96588.69;106816;1277;25442;-70
2023/02/03 06:03:03;;;;;;;8.90;4.20;;;;;;;-1.13;100.00;96592.21;106784;1277;25451;-69
2023/02/03 06:05:32;;;;;;;11.80;5.20;;;;;;;-1.12;100.00;96588.66;106797;1278;25176;-68
2023/02/03 06:08:01;;;;;;;10.60;5.00;;;;;;;-1.10;100.00;96586.88;106657;1278;25255;-70
2023/02/03 06:10:29;;;;;;;12.00;5.00;;;;;;;-1.07;100.00;96583.52;106878;1278;26535;-68
2023/02/03 06:12:58;;;;;;;11.40;4.90;;;;;;;-1.06;100.00;96580.20;106781;1271;25255;-71
2023/02/03 06:15:27;;;;;;;10.50;4.90;;;;;;;-1.05;100.00;96579.88;106727;1273;25254;-69
2023/02/03 06:17:56;;;;;;;12.90;5.50;;;;;;;-1.03;100.00;96575.42;106733;1275;25471;-69
2023/02/03 06:20:24;;;;;;;9.90;5.20;;;;;;;-1.01;100.00;96576.68;106753;1271;25303;-68
2023/02/03 06:22:53;;;;;;;13.60;5.40;;;;;;;-0.98;100.00;96566.33;106770;1277;26579;-70
2023/02/03 06:25:23;;;;;;;14.10;6.40;;;;;;;-0.94;100.00;96559.52;106035;1275;1003374;-71
2023/02/03 06:27:51;;;;;;;15.70;6.20;;;;;;;-0.92;100.00;96549.21;106749;1279;25407;-72
2023/02/03 06:30:22;;;;;;;15.50;6.10;;;;;;;-0.91;100.00;96550.05;105996;1276;1003225;-70
2023/02/03 06:32:51;;;;;;;15.30;6.50;;;;;;;-0.90;100.00;96542.19;106746;1273;25494;-69
2023/02/03 06:35:20;;;;;;;13.40;5.70;;;;;;;-0.91;100.00;96539.57;106732;1271;22547;-68
2023/02/03 06:37:48;;;;;;;15.60;7.10;;;;;;;-0.93;100.00;96540.63;105918;1274;1003336;-71
2023/02/03 06:40:17;;;;;;;16.00;7.40;;;;;;;-0.98;100.00;96544.05;105960;1273;1003665;-72
2023/02/03 06:42:47;;;;;;;12.90;6.60;;;;;;;-1.00;100.00;96546.75;106808;1275;24361;-70
2023/02/03 06:45:15;;;;;;;17.80;6.50;;;;;;;-1.03;100.00;96547.28;106705;1276;24253;-68
2023/02/03 06:47:44;;;;;;;19.70;8.40;;;;;;;-1.04;100.00;96550.23;106689;1273;25541;-69
2023/02/03 06:50:13;;;;;;;18.40;7.90;;;;;;;-1.03;100.00;96549.20;106890;1271;27015;-68
2023/02/03 06:52:42;;;;;;;20.20;8.00;;;;;;;-1.03;100.00;96553.16;107074;1274;23222;-69
2023/02/03 06:55:11;;;;;;;14.90;6.60;;;;;;;-1.04;100.00;96555.91;106818;1271;24348;-70
2023/02/03 06:57:46;;;;;;;17.20;7.00;;;;;;;-1.06;100.00;96557.48;106762;1278;25421;-70
2023/02/03 07:00:15;;;;;;;14.20;6.70;;;;;;;-1.05;100.00;96557.61;106976;1255;22569;-70
2023/02/03 07:02:52;;;;;;;17.50;8.00;;;;;;;-1.04;100.00;96559.83;106747;1275;25257;-69
2023/02/03 07:05:21;;;;;;;17.70;6.90;;;;;;;-1.01;100.00;96553.27;106780;1271;24278;-68
2023/02/03 07:07:50;;;;;;;20.10;7.60;;;;;;;-0.96;100.00;96550.15;106793;1279;22533;-72
2023/02/03 07:10:19;;;;;;;19.10;8.00;;;;;;;-0.92;100.00;96545.27;106668;1278;24235;-68
2023/02/03 07:12:49;;;;;;;23.50;10.10;;;;;;;-0.89;100.00;96533.71;106742;1271;26536;-71
2023/02/03 07:15:18;;;;;;;21.50;9.80;;;;;;;-0.83;100.00;96524.41;106766;1270;26531;-66
2023/02/03 07:17:53;;;;;;;19.30;10.00;;;;;;;-0.80;100.00;96514.98;106650;1270;25432;-72
2023/02/03 07:20:22;;;;;;;18.60;8.40;;;;;;;-0.76;100.00;96505.80;106831;1270;25427;-72
2023/02/03 07:22:53;;;;;;;19.20;8.20;;;;;;;-0.73;100.00;96504.59;106727;1278;25260;-70
2023/02/03 07:25:22;;;;;;;18.30;7.50;;;;;;;-0.69;100.00;96500.11;106713;1271;26576;-70
2023/02/03 07:27:50;;;;;;;15.20;7.40;;;;;;;-0.66;100.00;96491.25;106795;1275;22536;-71
2023/02/03 07:30:19;;;;;;;16.80;8.00;;;;;;;-0.61;100.00;96486.00;106772;1271;25377;-70
2023/02/03 07:32:49;;;;;;;20.30;8.80;;;;;;;-0.54;100.00;96477.88;106796;1270;25314;-71
2023/02/03 07:35:17;;;;;;;16.80;8.40;;;;;;;-0.49;100.00;96468.25;105942;1272;1003150;-67
2023/02/03 07:37:46;;;;;;;21.50;9.00;;;;;;;-0.42;100.00;96450.18;106548;1278;23929;-67
2023/02/03 07:40:15;;;;;;;15.90;7.30;;;;;;;-0.33;100.00;96436.63;106707;1270;23885;-67
2023/02/03 07:42:45;;;;;;;11.20;5.90;;;;;;;-0.28;100.00;96427.84;106796;1278;22660;-68
2023/02/03 07:45:15;;;;;;;17.20;7.10;;;;;;;-0.25;100.00;96419.98;106001;1269;1003008;-68
2023/02/03 07:47:44;;;;;;;14.30;7.20;;;;;;;-0.18;100.00;96407.26;106769;1277;25252;-71
2023/02/03 07:50:12;;;;;;;15.40;8.10;;;;;;;-0.12;100.00;96394.98;106094;1277;1003659;-70
2023/02/03 07:52:41;;;;;;;15.00;6.80;;;;;;;0.02;100.00;96372.77;106782;1278;25372;-70
2023/02/03 07:55:10;;;;;;;14.40;6.70;;;;;;;0.12;100.00;96359.95;106815;1278;26708;-68
2023/02/03 07:57:42;;;;;;;13.50;6.80;;;;;;;0.22;100.00;96343.94;106505;1278;26523;-70
2023/02/03 08:00:12;;;;;;;18.00;8.00;;;;;;;0.33;100.00;96316.48;106528;1278;26604;-70
2023/02/03 08:02:42;;;;;;;15.90;7.20;;;;;;;0.52;100.00;96294.60;106610;1270;24228;-70
2023/02/03 08:05:11;;;;;;;16.70;6.90;;;;;;;0.67;100.00;96268.55;105987;1255;1003093;-69
2023/02/03 08:07:39;;;;;;;11.80;5.60;;;;;;;0.86;100.00;96232.75;106706;1276;22523;-69
2023/02/03 08:10:08;;;;;;;15.60;6.10;;;;;;;1.11;100.00;96193.17;105877;1274;1003344;-67
2023/02/03 08:12:38;;;;;;;14.30;7.00;;;;;;;1.41;100.00;96147.81;106677;1278;25440;-68
2023/02/03 08:15:07;;;;;;;14.80;6.80;;;;;;;1.62;100.00;96060.02;106664;1278;22561;-67
2023/02/03 08:17:38;;;;;;;13.20;6.20;;;;;;;1.80;100.00;95997.67;106671;1269;25528;-69
2023/02/03 08:20:08;;;;;;;13.60;6.40;;;;;;;1.97;100.00;95968.21;106664;1275;22530;-69
2023/02/03 08:22:37;;;;;;;14.00;6.20;;;;;;;2.08;100.00;95946.25;106705;1278;22636;-69
2023/02/03 08:25:07;;;;;;;14.00;5.60;;;;;;;2.17;100.00;95920.87;106633;1272;25292;-71
2023/02/03 08:27:36;;;;;;;24.80;11.30;;;;;;;2.25;100.00;95911.11;106633;1271;24514;-72
2023/02/03 08:30:07;;;;;;;13.90;7.10;;;;;;;2.34;100.00;95890.41;106713;1271;25522;-71
2023/02/03 08:32:35;;;;;;;12.20;6.10;;;;;;;2.24;100.00;95900.30;106719;1270;24227;-69
2023/02/03 08:35:04;;;;;;;11.70;5.50;;;;;;;2.17;100.00;95907.30;106662;1271;22504;-71
2023/02/03 08:37:33;;;;;;;12.10;6.20;;;;;;;2.07;100.00;95912.42;106930;1271;26644;-70
2023/02/03 08:40:02;;;;;;;12.00;6.20;;;;;;;1.96;100.00;95925.22;107083;1271;23165;-69
2023/02/03 08:42:31;;;;;;;14.00;6.80;;;;;;;1.89;100.00;95930.34;106826;1267;25426;-70
2023/02/03 08:44:59;;;;;;;11.70;6.50;;;;;;;1.84;100.00;95929.59;106740;1278;25493;-70
2023/02/03 08:47:32;;;;;;;11.70;5.00;;;;;;;1.69;100.00;95944.11;106844;1271;25365;-71
2023/02/03 08:50:00;;;;;;;13.00;7.10;;;;;;;1.53;100.00;95960.92;106817;1270;25026;-68
2023/02/03 08:52:30;;;;;;;11.40;5.60;;;;;;;1.42;100.00;95974.90;106238;1270;1005220;-74
2023/02/03 08:54:59;;;;;;;12.80;5.70;;;;;;;1.39;100.00;95975.55;106871;1271;22554;-71
2023/02/03 08:57:34;;;;;;;12.80;7.60;;;;;;;1.39;100.00;95969.93;107152;1274;23874;-74
2023/02/03 09:00:04;;;;;;;15.10;8.20;;;;;;;1.40;100.00;95959.69;107066;1270;25260;-70
2023/02/03 09:02:35;;;;;;;15.20;8.10;;;;;;;1.45;100.00;95956.02;106960;1274;25275;-70
2023/02/03 09:05:04;;;;;;;17.10;7.80;;;;;;;1.47;100.00;95956.52;106724;1270;25367;-73
2023/02/03 09:07:37;;;;;;;19.10;9.30;;;;;;;1.54;100.00;95949.99;106789;1270;25443;-69
2023/02/03 09:10:06;;;;;;;18.00;8.80;;;;;;;1.57;100.00;95946.68;107117;1271;25437;-75
2023/02/03 09:12:36;;;;;;;14.30;7.60;;;;;;;1.56;100.00;95949.40;107020;1271;25953;-73
2023/02/03 09:15:07;;;;;;;14.70;6.30;;;;;;;1.54;100.00;95953.21;106851;1271;22526;-73
2023/02/03 09:17:54;;;;;;;15.70;8.10;;;;;;;1.47;100.00;95962.23;107065;1278;23828;-68
2023/02/03 09:20:27;;;;;;;12.10;6.70;;;;;;;1.43;100.00;95966.02;106906;1270;22552;-69
2023/02/03 09:22:59;;;;;;;11.70;6.20;;;;;;;1.41;100.00;95979.80;106353;1270;1003323;-73
2023/02/03 09:25:28;;;;;;;12.50;6.30;;;;;;;1.39;100.00;95997.25;106995;1270;23387;-69
2023/02/03 09:27:57;;;;;;;12.80;6.90;;;;;;;1.42;100.00;96009.48;106462;1272;25502;-74
2023/02/03 09:30:26;;;;;;;16.80;8.10;;;;;;;1.46;100.00;96019.52;107023;1270;23923;-68
2023/02/03 09:32:57;;;;;;;18.20;7.70;;;;;;;1.59;100.00;96007.34;106829;1270;26671;-69
2023/02/03 09:35:28;;;;;;;19.70;8.90;;;;;;;1.80;100.00;95990.87;106823;1270;24045;-70
2023/02/03 09:37:58;;;;;;;15.70;7.70;;;;;;;1.99;100.00;95983.20;106886;1271;22537;-68
2023/02/03 09:40:43;;;;;;;15.60;7.20;;;;;;;2.27;100.00;95959.30;106593;1278;26533;-69
2023/02/03 09:43:31;;;;;;;12.20;5.80;;;;;;;2.63;100.00;95915.29;106555;1278;22533;-70
2023/02/03 09:46:10;;;;;;;12.70;5.40;;;;;;;2.74;100.00;95916.36;106830;1278;25320;-69
2023/02/03 09:48:43;;;;;;;13.40;5.90;;;;;;;2.93;100.00;95903.45;106764;1278;22632;-69
2023/02/03 09:51:23;;;;;;;12.60;6.90;;;;;;;3.22;100.00;95890.03;106803;1278;22529;-67
2023/02/03 09:54:33;;;;;;;14.80;5.90;;;;;;;3.56;100.00;95872.43;106925;1270;23930;-74
2023/02/03 09:57:04;;;;;;;10.50;5.10;;;;;;;3.91;100.00;95855.02;106399;1270;25260;-70
2023/02/03 09:59:32;;;;;;;13.50;7.10;;;;;;;4.07;100.00;95879.21;106805;1273;25438;-73
2023/02/03 10:02:12;;;;;;;13.10;6.20;;;;;;;4.23;100.00;95909.48;106692;1271;23967;-68
2023/02/03 10:04:48;;;;;;;10.80;5.30;;;;;;;4.34;100.00;95952.56;106325;1271;1002849;-74
2023/02/03 10:07:28;;;;;;;14.30;7.00;;;;;;;4.46;100.00;95986.23;106435;1272;1002491;-74
2023/02/03 10:20:16;;;;;;;8.70;4.30;;;;;;;3.91;100.00;96010.61;104117;1301;558893;-72
2023/02/03 10:22:55;;;;;;;9.30;4.60;;;;;;;3.50;100.00;95773.20;106074;1288;25371;-74
2023/02/03 10:25:29;;;;;;;7.60;4.10;;;;;;;3.39;100.00;95965.52;106059;1288;22526;-73
2023/02/03 10:27:59;;;;;;;11.80;5.00;;;;;;;3.42;100.00;96120.00;106302;1278;25449;-74
2023/02/03 10:30:31;;;;;;;8.10;4.40;;;;;;;3.53;100.00;96229.15;106353;1282;25442;-73
2023/02/03 10:33:01;;;;;;;;;;;;;;;3.70;100.00;96309.96;106318;1283;210912;-73
2023/02/03 10:35:35;;;;;;;7.50;4.00;;;;;;;3.77;100.00;96400.71;106486;1276;25385;-75
2023/02/03 10:38:03;;;;;;;9.80;4.80;;;;;;;3.74;100.00;96491.17;106440;1282;26535;-73
2023/02/03 10:40:31;;;;;;;10.20;4.50;;;;;;;3.66;100.00;96602.20;106386;1279;25377;-71
2023/02/03 10:45:44;;;;;;;9.80;4.20;;;;;;;3.58;100.00;96789.98;106284;1276;22530;-69
2023/02/03 10:48:15;;;;;;;11.10;4.40;;;;;;;3.68;100.00;96854.40;106463;1276;26522;-72
2023/02/03 10:50:45;;;;;;;10.80;4.20;;;;;;;3.86;100.00;96895.17;106365;1276;24287;-70
2023/02/03 10:53:46;;;;;;;7.90;4.00;;;;;;;3.99;100.00;96942.08;106404;1276;25313;-70
2023/02/03 10:56:16;;;;;;;8.50;4.20;;;;;;;4.17;100.00;96987.41;106331;1276;26635;-72
2023/02/03 10:58:52;;;;;;;10.90;4.80;;;;;;;4.31;100.00;97044.22;107203;1276;22549;-70
2023/02/03 11:01:21;;;;;;;6.20;3.80;;;;;;;4.28;100.00;97121.78;109485;1276;22558;-69
2023/02/03 11:03:53;;;;;;;8.20;4.40;;;;;;;4.35;100.00;97195.05;107150;1275;25300;-68
2023/02/03 11:06:20;;;;;;;8.10;4.10;;;;;;;4.48;100.00;97264.58;106371;1275;25377;-75
2023/02/03 11:08:49;;;;;;;5.90;3.70;;;;;;;4.45;100.00;97371.23;106337;1275;24348;-73
2023/02/03 11:11:23;;;;;;;5.90;3.70;;;;;;;4.30;100.00;97541.39;106692;1275;25290;-75
2023/02/03 11:14:01;;;;;;;7.40;4.20;;;;;;;4.04;100.00;97692.76;108452;1276;25361;-72
2023/02/03 11:16:33;;;;;;;6.70;4.00;;;;;;;3.92;100.00;97826.50;106509;1276;25373;-73
2023/02/03 11:19:17;;;;;;;9.60;4.10;;;;;;;3.87;100.00;97935.45;106463;1278;22643;-71
2023/02/03 11:21:51;;;;;;;7.10;3.40;;;;;;;3.82;100.00;98008.18;106237;1277;28758;-73
2023/02/03 11:24:26;;;;;;;8.30;4.00;;;;;;;3.78;100.00;98066.66;106541;1279;23838;-69
2023/02/03 11:27:03;;;;;;;8.60;4.00;;;;;;;3.79;100.00;98109.22;106590;1276;25284;-69
2023/02/03 11:29:33;;;;;;;6.40;3.50;;;;;;;3.73;100.00;98151.59;106708;1276;22638;-69
2023/02/03 11:32:13;;;;;;;9.50;3.80;;;;;;;3.71;100.00;98195.50;106667;1281;24370;-70
2023/02/03 11:34:55;;;;;;;6.30;3.30;;;;;;;3.70;100.00;98224.68;106856;1270;25428;-74
2023/02/03 11:37:26;;;;;;;6.00;3.60;;;;;;;3.69;100.00;98266.15;106688;1270;22530;-69
2023/02/03 11:40:19;;;;;;;6.50;3.30;;;;;;;3.71;100.00;98299.59;106892;1270;25316;-67
2023/02/03 11:42:49;;;;;;;5.20;3.40;;;;;;;3.77;100.00;98309.07;106643;1270;25287;-71
2023/02/03 11:45:16;;;;;;;7.40;3.40;;;;;;;3.88;100.00;98341.37;106836;1270;25291;-67
2023/02/03 11:47:54;;;;;;;7.40;4.20;;;;;;;3.98;100.00;98351.14;106677;1276;25249;-75
2023/02/03 11:50:40;;;;;;;8.70;3.80;;;;;;;4.02;100.00;98367.42;106706;1270;24467;-74
2023/02/03 11:53:18;;;;;;;5.50;3.90;;;;;;;3.98;100.00;98396.04;106691;1276;25362;-74
2023/02/03 11:56:07;;;;;;;8.70;4.50;;;;;;;3.88;100.00;98433.55;106094;1275;1003327;-75
2023/02/03 11:58:35;;;;;;;8.10;4.30;;;;;;;3.75;100.00;98475.20;106875;1278;26659;-75
2023/02/03 12:01:36;;;;;;;7.00;3.70;;;;;;;3.74;100.00;98503.91;106775;1275;25294;-74
2023/02/03 12:04:23;;;;;;;9.30;5.00;;;;;;;3.72;100.00;98509.75;105950;1270;1003600;-69
2023/02/03 12:06:51;;;;;;;5.80;3.80;;;;;;;3.78;100.00;98513.75;106655;1272;25243;-70
2023/02/03 12:09:33;;;;;;;4.10;3.30;;;;;;;3.76;100.00;98534.83;106740;1272;25443;-70
2023/02/03 12:12:16;;;;;;;5.20;3.20;;;;;;;3.71;100.00;98543.86;106700;1270;25361;-69
2023/02/03 12:14:56;;;;;;;6.40;3.40;;;;;;;3.71;100.00;98556.73;106744;1272;26633;-70
2023/02/03 12:17:33;;;;;;;4.40;3.00;;;;;;;3.71;100.00;98562.98;106026;1273;1002977;-70
2023/02/03 12:20:19;;;;;;;7.50;3.80;;;;;;;3.67;100.00;98581.50;106647;1276;22611;-69
2023/02/03 12:22:53;;;;;;;7.20;3.60;;;;;;;3.63;100.00;98589.16;106977;1272;25328;-69
2023/02/03 12:25:40;;;;;;;5.30;3.70;;;;;;;3.53;100.00;98608.69;107002;1270;25342;-69
2023/02/03 12:28:16;;;;;;;9.10;4.50;;;;;;;3.47;100.00;98622.84;107134;1273;25418;-69
2023/02/03 12:31:13;;;;;;;13.20;5.20;;;;;;;3.44;100.00;98624.39;107098;1272;24225;-70
2023/02/03 12:33:51;;;;;;;8.40;4.70;;;;;;;3.39;100.00;98631.19;107174;1272;22617;-70
2023/02/03 12:36:27;;;;;;;9.70;4.90;;;;;;;3.35;100.00;98636.10;106283;1270;1003531;-69
2023/02/03 12:39:11;;;;;;;7.30;4.00;;;;;;;3.31;100.00;98629.31;106355;1267;1005035;-69
2023/02/03 12:41:42;;;;;;;11.70;5.20;;;;;;;3.30;100.00;98620.38;107123;1267;22747;-70
2023/02/03 12:44:19;;;;;;;19.60;7.00;;;;;;;3.30;100.00;98616.25;106999;1269;22531;-69
2023/02/03 12:47:12;;;;;;;10.70;5.20;;;;;;;3.29;100.00;98612.33;107009;1270;24208;-70
2023/02/03 12:50:03;;;;;;;13.10;5.50;;;;;;;3.21;100.00;98603.66;107101;1267;25425;-68
2023/02/03 12:52:35;;;;;;;10.60;5.30;;;;;;;3.13;100.00;98605.77;107032;1274;25230;-70
2023/02/03 12:55:21;;;;;;;13.70;6.10;;;;;;;3.08;100.00;98606.45;107217;1268;24209;-69
2023/02/03 12:57:53;;;;;;;10.20;5.40;;;;;;;3.04;100.00;98597.38;107149;1272;23728;-69
2023/02/03 13:00:40;;;;;;;12.20;6.00;;;;;;;3.05;100.00;98598.54;107244;1267;24203;-68
2023/02/03 13:03:33;;;;;;;9.80;4.70;;;;;;;3.05;100.00;98588.90;107198;1270;25457;-69
2023/02/03 13:06:22;;;;;;;11.40;5.10;;;;;;;3.03;100.00;98579.70;106998;1275;25284;-67
2023/02/03 13:08:53;;;;;;;11.50;5.20;;;;;;;3.03;100.00;98569.57;106939;1269;22557;-74
2023/02/03 13:11:47;;;;;;;13.20;5.60;;;;;;;3.03;100.00;98570.23;106997;1267;25445;-74
2023/02/03 13:14:35;;;;;;;13.00;5.70;;;;;;;3.02;100.00;98557.21;107011;1272;25245;-75
2023/02/03 13:17:11;;;;;;;14.50;5.90;;;;;;;2.99;100.00;98549.98;107041;1272;25288;-73
2023/02/03 13:19:44;;;;;;;12.60;5.50;;;;;;;2.95;100.00;98554.70;106998;1273;25600;-74
2023/02/03 13:22:12;;;;;;;14.80;7.20;;;;;;;2.91;100.00;98554.11;107012;1267;25492;-73
2023/02/03 13:24:46;;;;;;;22.00;8.60;;;;;;;2.86;100.00;98551.34;106966;1267;25290;-70
2023/02/03 13:27:14;;;;;;;17.30;8.60;;;;;;;2.84;100.00;98545.63;106266;1269;1003754;-73
2023/02/03 13:29:41;;;;;;;12.10;6.00;;;;;;;2.83;100.00;98542.52;106315;1273;1005633;-74
2023/02/03 13:32:11;;;;;;;10.30;5.10;;;;;;;2.82;100.00;98541.78;106970;1267;22532;-74
2023/02/03 13:35:18;;;;;;;9.70;4.60;;;;;;;2.81;100.00;98536.23;107063;1267;22513;-73
2023/02/03 13:38:05;;;;;;;8.70;5.10;;;;;;;2.79;100.00;98518.10;108655;1274;25431;-75
2023/02/03 13:40:57;;;;;;;7.40;4.50;;;;;;;2.76;100.00;98525.50;106422;1274;1003469;-78
2023/02/03 13:43:28;;;;;;;6.00;3.90;;;;;;;2.74;100.00;98519.34;106245;1274;1003466;-73
2023/02/03 13:46:24;;;;;;;8.20;4.10;;;;;;;2.69;100.00;98521.76;106298;1273;1003729;-67
2023/02/03 13:48:51;;;;;;;8.70;4.60;;;;;;;2.65;100.00;98521.79;106991;1273;22527;-66
2023/02/03 13:51:23;;;;;;;10.30;5.00;;;;;;;2.64;100.00;98521.77;106850;1274;26616;-74
2023/02/03 13:54:13;;;;;;;10.10;4.70;;;;;;;2.61;100.00;98517.41;106983;1272;22527;-74
2023/02/03 13:56:52;;;;;;;12.00;5.00;;;;;;;2.58;100.00;98508.77;106256;1269;1005172;-73
2023/02/03 13:59:41;;;;;;;13.60;6.10;;;;;;;2.56;100.00;98503.00;107093;1268;25294;-76
2023/02/03 14:02:20;;;;;;;11.30;5.40;;;;;;;2.53;100.00;98494.06;107246;1272;1002859;-74
2023/02/03 14:04:47;;;;;;;10.00;5.10;;;;;;;2.49;100.00;98490.94;107573;1274;25331;-68
2023/02/03 14:07:27;;;;;;;9.30;4.60;;;;;;;2.46;100.00;98490.65;107435;1274;22815;-69
2023/02/03 14:10:22;;;;;;;9.10;4.80;;;;;;;2.45;100.00;98483.31;107406;1270;25961;-69